Time,TemperatureF,DewpointF,PressureIn,WindDirection,WindDirectionDegrees,WindSpeedMPH,WindSpeedGustMPH,Humidity,HourlyPrecipIn,Conditions,Clouds,dailyrainin,SoftwareType,DateUTC
2013-05-25 00:02:00,52.0,45.0,30.24,North,9,0.0,-999.0,78,-99.99,,,-99.99,,2013-05-25 04:02:00,
2013-05-25 00:13:00,52.0,45.0,30.24,North,9,0.0,-999.0,78,-99.99,,,-99.99,,2013-05-25 04:13:00,
2013-05-25 00:23:00,52.0,46.0,30.23,North,9,0.0,-999.0,79,-99.99,,,-99.99,,2013-05-25 04:23:00,
2013-05-25 00:33:00,51.0,45.0,30.24,North,9,0.0,-999.0,80,-99.99,,,-99.99,,2013-05-25 04:33:00,
2013-05-25 00:43:00,51.0,45.0,30.24,North,9,0.0,-999.0,80,-99.99,,,-99.99,,2013-05-25 04:43:00,
2013-05-25 00:53:00,51.0,45.0,30.24,North,9,0.0,-999.0,81,-99.99,,,-99.99,,2013-05-25 04:53:00,
2013-05-25 01:02:00,51.0,46.0,30.26,North,9,0.0,-999.0,82,-99.99,,,-99.99,,2013-05-25 05:02:00,
2013-05-25 01:12:00,51.0,46.0,30.26,North,9,0.0,-999.0,82,-99.99,,,-99.99,,2013-05-25 05:12:00,
2013-05-25 01:22:00,50.0,45.0,30.25,North,9,0.0,-999.0,82,-99.99,,,-99.99,,2013-05-25 05:22:00,
2013-05-25 01:32:00,50.0,45.0,30.26,North,9,0.0,-999.0,83,-99.99,,,-99.99,,2013-05-25 05:32:00,
2013-05-25 01:43:00,50.0,45.0,30.26,North,9,0.0,-999.0,83,-99.99,,,-99.99,,2013-05-25 05:43:00,
2013-05-25 01:52:00,50.0,45.0,30.26,North,9,0.0,-999.0,83,-99.99,,,-99.99,,2013-05-25 05:52:00,
2013-05-25 02:02:00,49.0,44.0,30.26,North,9,0.0,-999.0,84,-99.99,,,-99.99,,2013-05-25 06:02:00,
2013-05-25 02:12:00,49.0,44.0,30.27,North,9,0.0,-999.0,84,-99.99,,,-99.99,,2013-05-25 06:12:00,
2013-05-25 02:21:00,49.0,44.0,30.27,North,9,0.0,-999.0,84,-99.99,,,-99.99,,2013-05-25 06:21:00,
2013-05-25 02:32:00,49.0,44.0,30.27,North,9,0.0,-999.0,84,-99.99,,,-99.99,,2013-05-25 06:32:00,
2013-05-25 02:42:00,49.0,44.0,30.27,North,9,0.0,-999.0,84,-99.99,,,-99.99,,2013-05-25 06:42:00,
2013-05-25 02:52:00,48.0,44.0,30.27,North,9,0.0,-999.0,85,-99.99,,,-99.99,,2013-05-25 06:52:00,
2013-05-25 03:01:00,48.0,44.0,30.27,North,9,0.0,-999.0,85,-99.99,,,-99.99,,2013-05-25 07:01:00,
2013-05-25 03:11:00,48.0,44.0,30.27,North,9,0.0,-999.0,85,-99.99,,,-99.99,,2013-05-25 07:11:00,
2013-05-25 03:22:00,48.0,44.0,30.27,North,9,0.0,-999.0,86,-99.99,,,-99.99,,2013-05-25 07:22:00,
2013-05-25 03:32:00,47.0,43.0,30.27,North,9,0.0,-999.0,87,-99.99,,,-99.99,,2013-05-25 07:32:00,
2013-05-25 03:42:00,47.0,43.0,30.27,North,9,0.0,-999.0,87,-99.99,,,-99.99,,2013-05-25 07:42:00,
2013-05-25 03:52:00,47.0,44.0,30.28,North,9,0.0,-999.0,88,-99.99,,,-99.99,,2013-05-25 07:52:00,
2013-05-25 04:02:00,47.0,44.0,30.27,North,5,0.0,-999.0,89,-99.99,,,-99.99,,2013-05-25 08:02:00,
2013-05-25 04:11:00,47.0,44.0,30.27,North,5,0.0,-999.0,89,-99.99,,,-99.99,,2013-05-25 08:11:00,
2013-05-25 04:22:00,47.0,44.0,30.26,North,5,0.0,-999.0,90,-99.99,,,-99.99,,2013-05-25 08:22:00,
2013-05-25 04:32:00,47.0,44.0,30.26,North,5,0.0,-999.0,90,-99.99,,,-99.99,,2013-05-25 08:32:00,
2013-05-25 04:42:00,47.0,44.0,30.27,North,5,0.0,-999.0,90,-99.99,,,-99.99,,2013-05-25 08:42:00,
2013-05-25 04:52:00,47.0,44.0,30.27,North,5,0.0,-999.0,90,-99.99,,,-99.99,,2013-05-25 08:52:00,
2013-05-25 05:02:00,47.0,44.0,30.27,North,5,0.0,-999.0,90,-99.99,,,-99.99,,2013-05-25 09:02:00,
2013-05-25 05:11:00,47.0,44.0,30.27,North,5,0.0,-999.0,90,-99.99,,,-99.99,,2013-05-25 09:11:00,
2013-05-25 05:21:00,46.0,43.0,30.28,North,5,0.0,-999.0,90,-99.99,,,-99.99,,2013-05-25 09:21:00,
2013-05-25 05:33:00,46.0,43.0,30.28,North,5,0.0,-999.0,90,-99.99,,,-99.99,,2013-05-25 09:33:00,
2013-05-25 05:43:00,46.0,43.0,30.28,North,5,0.0,-999.0,90,-99.99,,,-99.99,,2013-05-25 09:43:00,
2013-05-25 05:53:00,46.0,44.0,30.28,North,5,0.0,-999.0,91,-99.99,,,-99.99,,2013-05-25 09:53:00,
2013-05-25 06:03:00,46.0,44.0,30.29,North,5,0.0,-999.0,91,-99.99,,,-99.99,,2013-05-25 10:03:00,
2013-05-25 06:12:00,46.0,44.0,30.29,North,5,0.0,-999.0,91,-99.99,,,-99.99,,2013-05-25 10:12:00,
2013-05-25 06:23:00,46.0,44.0,30.29,North,5,0.0,-999.0,91,-99.99,,,-99.99,,2013-05-25 10:23:00,
2013-05-25 06:33:00,45.0,43.0,30.30,North,5,0.0,-999.0,91,-99.99,,,-99.99,,2013-05-25 10:33:00,
2013-05-25 06:42:00,45.0,43.0,30.30,North,5,0.0,-999.0,91,-99.99,,,-99.99,,2013-05-25 10:42:00,
2013-05-25 06:52:00,45.0,43.0,30.30,North,5,0.0,-999.0,91,-99.99,,,-99.99,,2013-05-25 10:52:00,
2013-05-25 07:02:00,45.0,43.0,30.31,North,5,0.0,-999.0,91,-99.99,,,-99.99,,2013-05-25 11:02:00,
2013-05-25 07:12:00,45.0,43.0,30.31,North,5,0.0,-999.0,91,-99.99,,,-99.99,,2013-05-25 11:12:00,
2013-05-25 07:22:00,45.0,43.0,30.32,North,5,0.0,-999.0,92,-99.99,,,-99.99,,2013-05-25 11:22:00,
2013-05-25 07:32:00,45.0,43.0,30.32,North,5,0.0,-999.0,92,-99.99,,,-99.99,,2013-05-25 11:32:00,
2013-05-25 07:42:00,45.0,43.0,30.32,North,5,0.0,-999.0,92,-99.99,,,-99.99,,2013-05-25 11:42:00,
2013-05-25 07:52:00,46.0,44.0,30.32,North,5,0.0,-999.0,92,-99.99,,,-99.99,,2013-05-25 11:52:00,
2013-05-25 08:01:00,47.0,45.0,30.32,NNE,17,0.0,-999.0,93,-99.99,,,-99.99,,2013-05-25 12:01:00,
2013-05-25 08:12:00,47.0,45.0,30.32,NNE,17,0.0,-999.0,93,-99.99,,,-99.99,,2013-05-25 12:12:00,
2013-05-25 08:22:00,47.0,45.0,30.32,NNE,24,0.0,-999.0,93,-99.99,,,-99.99,,2013-05-25 12:22:00,
2013-05-25 08:32:00,48.0,46.0,30.32,NNE,26,0.0,-999.0,94,-99.99,,,-99.99,,2013-05-25 12:32:00,
2013-05-25 08:42:00,48.0,46.0,30.32,NNE,26,0.0,-999.0,94,-99.99,,,-99.99,,2013-05-25 12:42:00,
2013-05-25 08:52:00,49.0,47.0,30.33,NNE,22,0.0,-999.0,94,-99.99,,,-99.99,,2013-05-25 12:52:00,
2013-05-25 09:02:00,51.0,49.0,30.32,NNE,19,1.0,-999.0,94,-99.99,,,-99.99,,2013-05-25 13:02:00,
2013-05-25 09:11:00,51.0,49.0,30.32,NNE,19,1.0,-999.0,94,-99.99,,,-99.99,,2013-05-25 13:11:00,
2013-05-25 09:22:00,53.0,52.0,30.32,NE,52,0.0,-999.0,95,-99.99,,,-99.99,,2013-05-25 13:22:00,
2013-05-25 09:32:00,55.0,53.0,30.32,ESE,104,1.0,-999.0,93,-99.99,,,-99.99,,2013-05-25 13:32:00,
2013-05-25 09:42:00,55.0,53.0,30.32,ESE,104,1.0,-999.0,93,-99.99,,,-99.99,,2013-05-25 13:42:00,
2013-05-25 09:52:00,58.0,52.0,30.33,NE,48,1.0,-999.0,79,-99.99,,,-99.99,,2013-05-25 13:52:00,
2013-05-25 10:02:00,60.0,50.0,30.32,East,84,2.0,-999.0,70,-99.99,,,-99.99,,2013-05-25 14:02:00,
2013-05-25 10:11:00,60.0,50.0,30.32,East,84,2.0,-999.0,70,-99.99,,,-99.99,,2013-05-25 14:11:00,
2013-05-25 10:22:00,63.0,52.0,30.32,North,355,1.0,-999.0,67,-99.99,,,-99.99,,2013-05-25 14:22:00,
2013-05-25 10:32:00,65.0,53.0,30.32,NNE,17,1.0,-999.0,64,-99.99,,,-99.99,,2013-05-25 14:32:00,
2013-05-25 10:42:00,65.0,53.0,30.32,NNE,17,1.0,-999.0,64,-99.99,,,-99.99,,2013-05-25 14:42:00,
2013-05-25 10:52:00,67.0,54.0,30.31,NNE,17,1.0,-999.0,62,-99.99,,,-99.99,,2013-05-25 14:52:00,
2013-05-25 11:01:00,69.0,52.0,30.32,ENE,57,1.0,-999.0,55,-99.99,,,-99.99,,2013-05-25 15:01:00,
2013-05-25 11:11:00,69.0,52.0,30.32,ENE,57,1.0,-999.0,55,-99.99,,,-99.99,,2013-05-25 15:11:00,
2013-05-25 11:22:00,70.0,52.0,30.32,ENE,73,0.0,-999.0,53,-99.99,,,-99.99,,2013-05-25 15:22:00,
2013-05-25 11:33:00,71.0,50.0,30.32,East,88,1.0,-999.0,48,-99.99,,,-99.99,,2013-05-25 15:33:00,
2013-05-25 11:43:00,71.0,50.0,30.32,East,88,1.0,-999.0,48,-99.99,,,-99.99,,2013-05-25 15:43:00,
2013-05-25 11:53:00,73.0,55.0,30.32,NNE,12,1.0,-999.0,54,-99.99,,,-99.99,,2013-05-25 15:53:00,
2013-05-25 12:03:00,74.0,50.0,30.32,NNE,14,0.0,-999.0,43,-99.99,,,-99.99,,2013-05-25 16:03:00,
2013-05-25 12:12:00,74.0,50.0,30.32,NNE,14,0.0,-999.0,43,-99.99,,,-99.99,,2013-05-25 16:12:00,
2013-05-25 12:23:00,75.0,52.0,30.31,NE,34,0.0,-999.0,45,-99.99,,,-99.99,,2013-05-25 16:23:00,
2013-05-25 12:32:00,75.0,50.0,30.30,ESE,121,0.0,-999.0,41,-99.99,,,-99.99,,2013-05-25 16:32:00,
2013-05-25 12:42:00,75.0,50.0,30.30,ESE,121,0.0,-999.0,41,-99.99,,,-99.99,,2013-05-25 16:42:00,
2013-05-25 12:52:00,76.0,51.0,30.29,NNE,30,1.0,-999.0,41,-99.99,,,-99.99,,2013-05-25 16:52:00,
2013-05-25 13:03:00,77.0,55.0,30.29,NW,317,0.0,-999.0,46,-99.99,,,-99.99,,2013-05-25 17:03:00,
2013-05-25 13:11:00,77.0,55.0,30.29,NW,317,0.0,-999.0,46,-99.99,,,-99.99,,2013-05-25 17:11:00,
2013-05-25 13:22:00,78.0,50.0,30.29,NNE,26,0.0,-999.0,37,-99.99,,,-99.99,,2013-05-25 17:22:00,
2013-05-25 13:32:00,78.0,50.0,30.29,NNE,14,1.0,-999.0,38,-99.99,,,-99.99,,2013-05-25 17:32:00,
2013-05-25 13:42:00,78.0,50.0,30.29,NNE,14,1.0,-999.0,38,-99.99,,,-99.99,,2013-05-25 17:42:00,
2013-05-25 13:52:00,79.0,51.0,30.28,NNE,24,0.0,-999.0,38,-99.99,,,-99.99,,2013-05-25 17:52:00,
2013-05-25 14:02:00,80.0,50.0,30.28,North,11,1.0,-999.0,35,-99.99,,,-99.99,,2013-05-25 18:02:00,
2013-05-25 14:11:00,80.0,50.0,30.28,North,11,1.0,-999.0,35,-99.99,,,-99.99,,2013-05-25 18:11:00,
2013-05-25 14:21:00,80.0,51.0,30.27,NE,48,0.0,-999.0,36,-99.99,,,-99.99,,2013-05-25 18:21:00,
2013-05-25 14:32:00,80.0,53.0,30.26,NE,38,1.0,-999.0,39,-99.99,,,-99.99,,2013-05-25 18:32:00,
2013-05-25 14:42:00,80.0,53.0,30.26,NE,38,1.0,-999.0,39,-99.99,,,-99.99,,2013-05-25 18:42:00,
2013-05-25 14:52:00,80.0,51.0,30.26,NE,48,0.0,-999.0,37,-99.99,,,-99.99,,2013-05-25 18:52:00,
2013-05-25 15:01:00,80.0,56.0,30.25,NE,38,0.0,-999.0,44,-99.99,,,-99.99,,2013-05-25 19:01:00,
2013-05-25 15:11:00,80.0,56.0,30.25,NE,38,0.0,-999.0,44,-99.99,,,-99.99,,2013-05-25 19:11:00,
2013-05-25 15:22:00,80.0,50.0,30.25,ENE,63,0.0,-999.0,35,-99.99,,,-99.99,,2013-05-25 19:22:00,
2013-05-25 15:32:00,80.0,49.0,30.25,NNE,21,0.0,-999.0,34,-99.99,,,-99.99,,2013-05-25 19:32:00,
2013-05-25 15:42:00,80.0,49.0,30.25,NNE,21,0.0,-999.0,34,-99.99,,,-99.99,,2013-05-25 19:42:00,
2013-05-25 15:52:00,80.0,52.0,30.25,North,360,0.0,-999.0,38,-99.99,,,-99.99,,2013-05-25 19:52:00,
2013-05-25 16:02:00,79.0,50.0,30.25,North,355,0.0,-999.0,37,-99.99,,,-99.99,,2013-05-25 20:02:00,
2013-05-25 16:11:00,79.0,50.0,30.25,North,355,0.0,-999.0,37,-99.99,,,-99.99,,2013-05-25 20:11:00,
2013-05-25 16:22:00,78.0,50.0,30.25,NNW,341,0.0,-999.0,37,-99.99,,,-99.99,,2013-05-25 20:22:00,
2013-05-25 16:32:00,77.0,47.0,30.25,North,360,0.0,-999.0,35,-99.99,,,-99.99,,2013-05-25 20:32:00,
2013-05-25 16:42:00,77.0,47.0,30.25,North,360,0.0,-999.0,35,-99.99,,,-99.99,,2013-05-25 20:42:00,
2013-05-25 16:52:00,76.0,48.0,30.24,North,360,0.0,-999.0,37,-99.99,,,-99.99,,2013-05-25 20:52:00,
2013-05-25 17:02:00,75.0,50.0,30.24,North,355,0.0,-999.0,42,-99.99,,,-99.99,,2013-05-25 21:02:00,
2013-05-25 17:11:00,75.0,50.0,30.24,North,355,0.0,-999.0,42,-99.99,,,-99.99,,2013-05-25 21:11:00,
2013-05-25 17:21:00,75.0,48.0,30.23,NNE,13,0.0,-999.0,38,-99.99,,,-99.99,,2013-05-25 21:21:00,
2013-05-25 17:33:00,74.0,48.0,30.23,NNE,13,0.0,-999.0,40,-99.99,,,-99.99,,2013-05-25 21:33:00,
2013-05-25 17:43:00,74.0,48.0,30.23,NNE,13,0.0,-999.0,40,-99.99,,,-99.99,,2013-05-25 21:43:00,
2013-05-25 17:53:00,74.0,52.0,30.23,North,5,0.0,-999.0,46,-99.99,,,-99.99,,2013-05-25 21:53:00,
2013-05-25 18:03:00,73.0,49.0,30.22,NE,35,0.0,-999.0,43,-99.99,,,-99.99,,2013-05-25 22:03:00,
2013-05-25 18:13:00,73.0,49.0,30.22,NE,35,0.0,-999.0,43,-99.99,,,-99.99,,2013-05-25 22:13:00,
2013-05-25 18:23:00,73.0,50.0,30.22,NNE,19,0.0,-999.0,45,-99.99,,,-99.99,,2013-05-25 22:23:00,
2013-05-25 18:32:00,72.0,46.0,30.21,NNE,20,0.0,-999.0,40,-99.99,,,-99.99,,2013-05-25 22:32:00,
2013-05-25 18:42:00,72.0,46.0,30.21,NNE,20,0.0,-999.0,40,-99.99,,,-99.99,,2013-05-25 22:42:00,
2013-05-25 18:52:00,72.0,48.0,30.21,NNE,24,0.0,-999.0,43,-99.99,,,-99.99,,2013-05-25 22:52:00,
2013-05-25 19:02:00,71.0,47.0,30.21,NNE,24,0.0,-999.0,43,-99.99,,,-99.99,,2013-05-25 23:02:00,
2013-05-25 19:12:00,71.0,47.0,30.21,NNE,24,0.0,-999.0,43,-99.99,,,-99.99,,2013-05-25 23:12:00,
2013-05-25 19:22:00,71.0,48.0,30.21,NE,34,0.0,-999.0,44,-99.99,,,-99.99,,2013-05-25 23:22:00,
2013-05-25 19:32:00,70.0,48.0,30.22,NE,34,0.0,-999.0,46,-99.99,,,-99.99,,2013-05-25 23:32:00,
2013-05-25 19:42:00,70.0,49.0,30.22,NE,50,0.0,-999.0,48,-99.99,,,-99.99,,2013-05-25 23:42:00,
2013-05-25 19:52:00,70.0,49.0,30.22,NE,50,0.0,-999.0,48,-99.99,,,-99.99,,2013-05-25 23:52:00,
2013-05-25 20:02:00,70.0,50.0,30.21,NE,53,0.0,-999.0,49,-99.99,,,-99.99,,2013-05-26 00:02:00,
2013-05-25 20:11:00,70.0,50.0,30.21,NE,53,0.0,-999.0,49,-99.99,,,-99.99,,2013-05-26 00:11:00,
2013-05-25 20:22:00,69.0,51.0,30.21,NE,53,0.0,-999.0,52,-99.99,,,-99.99,,2013-05-26 00:22:00,
2013-05-25 20:31:00,68.0,51.0,30.21,NE,53,0.0,-999.0,54,-99.99,,,-99.99,,2013-05-26 00:31:00,
2013-05-25 20:42:00,68.0,51.0,30.21,NE,53,0.0,-999.0,54,-99.99,,,-99.99,,2013-05-26 00:42:00,
2013-05-25 20:53:00,67.0,51.0,30.19,NE,53,0.0,-999.0,56,-99.99,,,-99.99,,2013-05-26 00:53:00,
2013-05-25 21:01:00,66.0,51.0,30.20,NE,53,0.0,-999.0,59,-99.99,,,-99.99,,2013-05-26 01:01:00,
2013-05-25 21:11:00,66.0,51.0,30.20,NE,53,0.0,-999.0,59,-99.99,,,-99.99,,2013-05-26 01:11:00,
2013-05-25 21:21:00,65.0,51.0,30.19,NE,53,0.0,-999.0,60,-99.99,,,-99.99,,2013-05-26 01:21:00,
2013-05-25 21:32:00,63.0,50.0,30.19,NE,53,0.0,-999.0,62,-99.99,,,-99.99,,2013-05-26 01:32:00,
2013-05-25 21:42:00,63.0,50.0,30.19,NE,53,0.0,-999.0,62,-99.99,,,-99.99,,2013-05-26 01:42:00,
2013-05-25 21:53:00,62.0,49.0,30.18,NE,53,0.0,-999.0,63,-99.99,,,-99.99,,2013-05-26 01:53:00,
2013-05-25 22:02:00,61.0,50.0,30.17,NE,53,0.0,-999.0,66,-99.99,,,-99.99,,2013-05-26 02:02:00,
2013-05-25 22:11:00,61.0,50.0,30.17,NE,53,0.0,-999.0,66,-99.99,,,-99.99,,2013-05-26 02:11:00,
2013-05-25 22:21:00,60.0,49.0,30.16,NE,53,0.0,-999.0,68,-99.99,,,-99.99,,2013-05-26 02:21:00,
2013-05-25 22:32:00,59.0,50.0,30.17,NE,53,0.0,-999.0,71,-99.99,,,-99.99,,2013-05-26 02:32:00,
2013-05-25 22:42:00,59.0,50.0,30.17,NE,53,0.0,-999.0,71,-99.99,,,-99.99,,2013-05-26 02:42:00,
2013-05-25 22:52:00,59.0,50.0,30.18,NE,53,0.0,-999.0,72,-99.99,,,-99.99,,2013-05-26 02:52:00,
2013-05-25 23:01:00,58.0,49.0,30.19,NE,53,0.0,-999.0,73,-99.99,,,-99.99,,2013-05-26 03:01:00,
2013-05-25 23:11:00,58.0,49.0,30.19,NE,53,0.0,-999.0,73,-99.99,,,-99.99,,2013-05-26 03:11:00,
2013-05-25 23:22:00,57.0,49.0,30.19,NE,53,0.0,-999.0,74,-99.99,,,-99.99,,2013-05-26 03:22:00,
2013-05-25 23:33:00,56.0,48.0,30.19,NE,53,0.0,-999.0,74,-99.99,,,-99.99,,2013-05-26 03:33:00,
2013-05-25 23:43:00,56.0,48.0,30.19,NE,53,0.0,-999.0,74,-99.99,,,-99.99,,2013-05-26 03:43:00,
2013-05-25 23:53:00,56.0,48.0,30.19,NE,53,0.0,-999.0,74,-99.99,,,-99.99,,2013-05-26 03:53:00,